Kaplan, LA (70548)

5:29 PM CST on February 10, 2016 (GMT -0600)
Hargrave Ln | | Change Station
CLOSE
Current Station
Personal Weather Station
Location: Kaplan, LA
Elevation: 13 ft
Nearby Weather Stations

Elev 13 ft 29.98 °N, 92.27 °W | Updated 22 seconds ago

Clear
Clear
57.0 °F
Feels Like 57.0 °F
N
1.0
Wind Variable Wind from SW
Gusts 5.0 mph

Today
High -- | Low -- °F
--% Chance of Precip.
Yesterday
High -- | Low -- °F
Precip. -- in
Pressure 30.29 in
Visibility 10.0 miles
Clouds Clear
Dew Point 40 °F
Humidity 53%
Rainfall 0.00 in
Snow Depth Not available.
6:53 AM 5:53 PM
Waxing Crescent, 8% visible
METAR KIYA 102315Z AUTO 24006KT 10SM CLR 13/00 A3029 RMK AO2 T01301001
Pressure 30.29 in
Visibility 10.0 miles
Clouds Clear
Dew Point 40 °F
Humidity 53%
Rainfall 0.00 in
Snow Depth Not available.
6:53 AM 5:53 PM
Waxing Crescent, 8% visible
METAR KIYA 102315Z AUTO 24006KT 10SM CLR 13/00 A3029 RMK AO2 T01301001

10-Day Weather Forecast

Almanac

Astronomy

Feb. 10, 2016 Rise Set
Actual Time
Civil Twilight
Nautical Twilight
Astronomical Twilight
Moon
Length of Visible Light
Length of Day
Tomorrow will be .
, % of the Moon is Illuminated

Today's Extremes

State Highs State Lows

Community

WunderPhotos

Upload Photos

1,891,935 photos uploaded!

WunderBlog® & News

Nearby

Air Quality

  Air Quality AQ Index Pollutant
Not available.

Snow Depth

Station Depth Elevation

Earthquake Activity

City Distance Mag. Time & Date
Minimum magnitude displayed is 2.5.

Coastal Water Temperatures

Place Temperature

Stations

Nearby Weather Stations

Station Location Temp. Windchill Dew Point Humidity Wind Precip. Elev Updated Type
                   

Watches & Warnings

There are currently no watches in effect.